createdAt,value
2018-06-08T00:00:55.765Z,17.30
2018-06-08T00:03:26.454Z,17.20
2018-06-08T00:05:57.209Z,17.20
2018-06-08T00:08:27.901Z,17.20
2018-06-08T00:10:58.861Z,17.20
2018-06-08T00:13:29.900Z,17.20
2018-06-08T00:16:00.586Z,17.10
2018-06-08T00:18:31.265Z,17.10
2018-06-08T00:21:01.986Z,17.10
2018-06-08T00:23:32.665Z,17.10
2018-06-08T00:26:03.313Z,17.00
2018-06-08T00:28:33.982Z,17.00
2018-06-08T00:31:04.845Z,17.00
2018-06-08T00:33:35.521Z,16.90
2018-06-08T00:36:06.270Z,16.90
2018-06-08T00:38:36.957Z,16.80
2018-06-08T00:41:07.822Z,16.80
2018-06-08T00:43:38.541Z,16.70
2018-06-08T00:46:09.257Z,16.70
2018-06-08T00:48:39.909Z,16.70
2018-06-08T00:53:40.541Z,16.60
2018-06-08T00:56:20.726Z,16.50
2018-06-08T00:58:51.456Z,16.50
2018-06-08T01:01:22.134Z,16.40
2018-06-08T01:03:53.818Z,16.40
2018-06-08T01:06:24.522Z,16.30
2018-06-08T01:08:55.225Z,16.20
2018-06-08T01:11:26.190Z,16.10
2018-06-08T01:13:57.990Z,16.10
2018-06-08T01:16:29.994Z,16.10
2018-06-08T01:19:00.722Z,16.00
2018-06-08T01:24:02.306Z,16.00
2018-06-08T01:26:33.065Z,15.90
2018-06-08T01:29:04.006Z,15.90
2018-06-08T01:31:34.688Z,15.80
2018-06-08T01:34:05.352Z,15.80
2018-06-08T01:39:10.130Z,15.80
2018-06-08T01:41:40.839Z,15.70
2018-06-08T01:44:11.527Z,15.70
2018-06-08T01:46:42.554Z,15.60
2018-06-08T01:49:13.257Z,15.60
2018-06-08T01:54:15.809Z,15.60
2018-06-08T01:56:48.537Z,15.60
2018-06-08T02:01:49.388Z,15.60
2018-06-08T02:04:20.134Z,15.60
2018-06-08T02:09:20.822Z,15.50
2018-06-08T02:11:51.525Z,15.40
2018-06-08T02:14:22.217Z,15.30
2018-06-08T02:16:52.869Z,15.30
2018-06-08T02:19:24.629Z,15.30
2018-06-08T02:21:55.664Z,15.20
2018-06-08T02:24:26.380Z,15.20
2018-06-08T02:26:57.041Z,15.20
2018-06-08T02:29:28.186Z,15.20
2018-06-08T02:31:59.108Z,15.20
2018-06-08T02:34:30.010Z,15.20
2018-06-08T02:37:00.910Z,15.20
2018-06-08T02:39:31.793Z,15.20
2018-06-08T02:42:02.617Z,15.20
2018-06-08T02:47:04.096Z,15.20
2018-06-08T02:52:06.295Z,15.10
2018-06-08T02:54:37.192Z,15.00
2018-06-08T02:57:10.337Z,15.00
2018-06-08T02:59:41.126Z,14.90
2018-06-08T03:02:11.917Z,14.90
2018-06-08T03:04:43.116Z,14.80
2018-06-08T03:09:44.017Z,14.70
2018-06-08T03:12:14.812Z,14.70
2018-06-08T03:17:15.832Z,14.70
2018-06-08T03:19:46.923Z,14.70
2018-06-08T03:22:17.766Z,14.70
2018-06-08T03:24:48.555Z,14.70
2018-06-08T03:27:19.406Z,14.60
2018-06-08T03:29:50.209Z,14.60
2018-06-08T03:32:21.220Z,14.60
2018-06-08T03:34:52.410Z,14.50
2018-06-08T03:39:54.029Z,14.50
2018-06-08T03:42:24.858Z,14.40
2018-06-08T03:44:55.741Z,14.40
2018-06-08T03:47:26.615Z,14.40
2018-06-08T03:49:57.669Z,14.40
2018-06-08T03:52:28.469Z,14.40
2018-06-08T03:54:59.326Z,14.40
2018-06-08T04:00:00.124Z,14.50
2018-06-08T04:02:31.069Z,14.50
2018-06-08T04:05:01.974Z,14.60
2018-06-08T04:07:32.847Z,14.70
2018-06-08T04:10:03.757Z,14.80
2018-06-08T04:12:36.738Z,14.80
2018-06-08T04:15:07.782Z,14.90
2018-06-08T04:17:40.169Z,15.00
2018-06-08T04:20:11.018Z,15.00
2018-06-08T04:22:41.907Z,15.10
2018-06-08T04:25:12.947Z,15.10
2018-06-08T04:27:44.976Z,15.20
2018-06-08T04:30:16.356Z,15.30
2018-06-08T04:32:48.248Z,15.30
2018-06-08T04:37:51.807Z,15.50
2018-06-08T04:40:24.875Z,15.60
2018-06-08T04:45:26.548Z,15.70
2018-06-08T04:50:28.237Z,15.90
2018-06-08T04:53:00.468Z,15.90
2018-06-08T04:55:32.639Z,16.00
2018-06-08T04:58:03.415Z,16.10
2018-06-08T05:00:34.312Z,16.10
2018-06-08T05:03:05.205Z,16.20
2018-06-08T05:05:35.990Z,16.30
2018-06-08T05:08:06.923Z,16.40
2018-06-08T05:13:07.787Z,16.40
2018-06-08T05:18:09.233Z,16.60
2018-06-08T05:20:40.068Z,16.70
2018-06-08T05:23:10.951Z,16.80
2018-06-08T05:25:41.919Z,16.80
2018-06-08T05:28:12.881Z,16.90
2018-06-08T05:30:43.833Z,17.00
2018-06-08T05:33:14.625Z,17.00
2018-06-08T05:35:45.880Z,17.00
2018-06-08T05:38:16.692Z,17.10
2018-06-08T05:43:17.829Z,17.10
2018-06-08T05:45:48.931Z,17.20
2018-06-08T05:48:20.291Z,17.30
2018-06-08T05:50:51.139Z,17.30
2018-06-08T05:53:22.003Z,17.40
2018-06-08T05:55:52.810Z,17.50
2018-06-08T05:58:23.621Z,17.60
2018-06-08T06:00:54.687Z,17.70
2018-06-08T06:03:25.864Z,17.70
2018-06-08T06:05:56.829Z,17.80
2018-06-08T06:08:27.700Z,17.90
2018-06-08T06:10:58.619Z,18.00
2018-06-08T06:13:29.466Z,18.10
2018-06-08T06:16:00.617Z,18.10
2018-06-08T06:21:00.792Z,18.20
2018-06-08T06:23:31.699Z,18.40
2018-06-08T06:26:02.698Z,18.50
2018-06-08T06:28:33.508Z,18.60
2018-06-08T06:31:04.605Z,18.70
2018-06-08T06:33:35.445Z,18.80
2018-06-08T06:36:07.413Z,18.90
2018-06-08T06:38:38.262Z,19.00
2018-06-08T06:41:09.343Z,19.10
2018-06-08T06:43:40.156Z,19.20
2018-06-08T06:46:11.022Z,19.30
2018-06-08T06:48:41.840Z,19.30
2018-06-08T06:51:12.687Z,19.40
2018-06-08T06:53:43.495Z,19.40
2018-06-08T06:56:14.351Z,19.50
2018-06-08T06:58:45.305Z,19.60
2018-06-08T07:01:16.766Z,19.70
2018-06-08T07:03:47.804Z,19.80
2018-06-08T07:06:18.678Z,19.90
2018-06-08T07:11:19.839Z,20.10
2018-06-08T07:13:54.471Z,20.20
2018-06-08T07:16:25.700Z,20.30
2018-06-08T07:18:56.494Z,20.30
2018-06-08T07:21:27.430Z,20.50
2018-06-08T07:23:58.300Z,20.60
2018-06-08T07:26:30.833Z,20.70
2018-06-08T07:29:01.506Z,20.80
2018-06-08T07:31:32.245Z,20.90
2018-06-08T07:34:03.044Z,20.90
2018-06-08T07:36:34.785Z,21.00
2018-06-08T07:41:37.399Z,21.30
2018-06-08T07:44:08.111Z,21.40
2018-06-08T07:46:39.042Z,21.50
2018-06-08T07:49:09.717Z,21.60
2018-06-08T07:51:40.386Z,21.70
2018-06-08T07:54:11.076Z,21.90
2018-06-08T08:01:41.982Z,22.20
2018-06-08T08:04:12.673Z,22.10
2018-06-08T08:06:43.394Z,22.30
2018-06-08T08:09:14.081Z,22.30
2018-06-08T08:11:45.254Z,22.40
2018-06-08T08:14:15.922Z,22.50
2018-06-08T08:16:46.605Z,22.60
2018-06-08T08:19:17.344Z,22.60
2018-06-08T08:21:48.635Z,22.70
2018-06-08T08:24:19.394Z,22.80
2018-06-08T08:26:50.066Z,22.90
2018-06-08T08:29:20.750Z,22.90
2018-06-08T08:31:51.426Z,22.90
2018-06-08T08:34:22.490Z,22.90
2018-06-08T08:36:53.166Z,23.00
2018-06-08T08:39:23.882Z,23.10
2018-06-08T08:41:54.562Z,23.30
2018-06-08T08:44:25.250Z,23.30
2018-06-08T08:46:56.066Z,23.40
2018-06-08T08:49:26.714Z,23.60
2018-06-08T08:51:57.476Z,23.70
2018-06-08T08:54:28.131Z,23.90
2018-06-08T08:56:58.938Z,24.00
2018-06-08T08:59:29.646Z,24.10
2018-06-08T09:02:00.330Z,24.20
2018-06-08T09:04:31.054Z,24.30
2018-06-08T09:07:01.705Z,24.40
2018-06-08T09:09:32.397Z,24.60
2018-06-08T09:12:03.099Z,24.70
2018-06-08T09:14:33.779Z,24.80
2018-06-08T09:17:04.443Z,24.90
2018-06-08T09:19:35.390Z,25.00
2018-06-08T09:22:06.132Z,25.10
2018-06-08T09:24:36.821Z,25.30
2018-06-08T09:27:07.514Z,25.40
2018-06-08T09:29:38.246Z,25.50
2018-06-08T09:32:09.000Z,25.60
2018-06-08T09:34:39.681Z,25.60
2018-06-08T09:37:10.376Z,25.80
2018-06-08T09:39:41.062Z,25.80
2018-06-08T09:42:11.712Z,25.90
2018-06-08T09:44:42.696Z,26.00
2018-06-08T09:49:43.367Z,26.10
2018-06-08T09:57:15.286Z,26.30
2018-06-08T09:59:45.993Z,26.50
2018-06-08T10:04:46.627Z,26.70
2018-06-08T10:07:17.566Z,26.70
2018-06-08T10:09:48.274Z,26.80
2018-06-08T10:12:18.941Z,26.90
2018-06-08T10:14:49.669Z,27.00
2018-06-08T10:17:20.409Z,27.10
2018-06-08T10:19:51.214Z,27.10
2018-06-08T10:22:21.899Z,27.10
2018-06-08T10:24:52.582Z,27.10
2018-06-08T10:27:23.344Z,27.10
2018-06-08T10:29:54.123Z,27.10
2018-06-08T10:37:25.620Z,26.90
2018-06-08T10:39:56.489Z,26.90
2018-06-08T10:42:27.488Z,27.00
2018-06-08T10:47:28.597Z,27.10
2018-06-08T10:49:59.543Z,27.10
2018-06-08T10:52:30.332Z,27.20
2018-06-08T10:55:01.119Z,27.20
2018-06-08T10:57:32.442Z,27.30
2018-06-08T11:00:03.138Z,27.40
2018-06-08T11:02:33.816Z,27.50
2018-06-08T11:05:04.692Z,27.60
2018-06-08T11:07:35.623Z,27.50
2018-06-08T11:10:06.310Z,27.30
2018-06-08T11:12:36.994Z,27.30
2018-06-08T11:15:07.664Z,27.30
2018-06-08T11:17:38.362Z,27.30
2018-06-08T11:20:09.055Z,27.50
2018-06-08T11:22:39.798Z,27.60
2018-06-08T11:27:40.419Z,27.60
2018-06-08T11:30:11.082Z,27.60
2018-06-08T11:32:41.797Z,27.70
2018-06-08T11:35:12.486Z,27.70
2018-06-08T11:37:43.261Z,27.80
2018-06-08T11:40:13.914Z,27.80
2018-06-08T11:42:44.630Z,27.90
2018-06-08T11:45:15.695Z,27.90
2018-06-08T11:47:46.370Z,27.90
2018-06-08T11:50:17.103Z,28.00
2018-06-08T11:52:47.820Z,28.10
2018-06-08T11:55:18.572Z,28.20
2018-06-08T12:00:19.250Z,28.40
2018-06-08T12:02:49.952Z,28.40
2018-06-08T12:05:20.698Z,28.50
2018-06-08T12:10:21.286Z,28.60
2018-06-08T12:12:51.985Z,28.50
2018-06-08T12:15:22.661Z,28.60
2018-06-08T12:17:53.382Z,28.60
2018-06-08T12:20:24.170Z,28.60
2018-06-08T12:22:54.821Z,28.80
2018-06-08T12:25:25.581Z,28.80
2018-06-08T12:27:56.230Z,28.90
2018-06-08T12:30:26.917Z,29.00
2018-06-08T12:32:57.574Z,29.00
2018-06-08T12:37:58.743Z,29.10
2018-06-08T12:40:29.884Z,29.10
2018-06-08T12:43:01.280Z,29.20
2018-06-08T12:45:31.982Z,29.30
2018-06-08T12:48:03.018Z,29.30
2018-06-08T12:53:04.283Z,29.40
2018-06-08T12:58:05.001Z,29.40
2018-06-08T13:00:35.661Z,29.40
2018-06-08T13:03:06.815Z,29.40
2018-06-08T13:05:37.482Z,29.30
2018-06-08T13:08:08.203Z,29.30
2018-06-08T13:15:39.169Z,29.20
2018-06-08T13:18:09.860Z,29.20
2018-06-08T13:20:40.673Z,29.10
2018-06-08T13:23:11.462Z,28.90
2018-06-08T13:25:42.391Z,28.90
2018-06-08T13:28:13.070Z,28.80
2018-06-08T13:33:14.137Z,28.90
2018-06-08T13:35:44.817Z,28.90
2018-06-08T13:38:15.616Z,28.70
2018-06-08T13:40:46.322Z,28.70
2018-06-08T13:43:17.010Z,28.70
2018-06-08T13:45:47.673Z,28.70
2018-06-08T13:48:18.397Z,28.70
2018-06-08T13:50:49.097Z,28.80
2018-06-08T13:55:49.717Z,28.90
2018-06-08T13:58:20.538Z,29.00
2018-06-08T14:00:51.364Z,29.00
2018-06-08T14:03:22.085Z,29.10
2018-06-08T14:05:52.886Z,29.10
2018-06-08T14:08:23.903Z,29.20
2018-06-08T14:10:54.695Z,29.20
2018-06-08T14:15:55.688Z,29.10
2018-06-08T14:18:26.376Z,29.10
2018-06-08T14:20:57.363Z,29.00
2018-06-08T14:23:28.474Z,29.00
2018-06-08T14:25:59.425Z,29.00
2018-06-08T14:28:30.427Z,29.00
2018-06-08T14:31:01.404Z,29.00
2018-06-08T14:33:32.353Z,28.70
2018-06-08T14:36:03.074Z,28.50
2018-06-08T14:41:03.938Z,28.50
2018-06-08T14:46:04.630Z,28.30
2018-06-08T14:48:36.219Z,28.20
2018-06-08T14:51:07.185Z,28.20
2018-06-08T14:53:37.894Z,28.10
2018-06-08T14:56:08.632Z,28.10
2018-06-08T14:58:39.801Z,28.20
2018-06-08T15:03:41.310Z,28.20
2018-06-08T15:06:12.458Z,28.20
2018-06-08T15:11:08.689Z,28.10
2018-06-08T15:13:40.161Z,28.10
2018-06-08T15:16:11.154Z,28.00
2018-06-08T15:18:42.160Z,28.00
2018-06-08T15:21:13.027Z,28.00
2018-06-08T15:23:43.869Z,28.00
2018-06-08T15:28:44.988Z,28.00
2018-06-08T15:31:15.791Z,28.00
2018-06-08T15:33:46.561Z,28.10
2018-06-08T15:36:17.309Z,28.10
2018-06-08T15:38:52.351Z,28.10
2018-06-08T15:41:23.041Z,28.10
2018-06-08T15:43:53.895Z,28.00
2018-06-08T15:51:25.065Z,28.00
2018-06-08T15:53:55.917Z,28.00
2018-06-08T15:56:27.510Z,28.10
2018-06-08T15:58:58.972Z,28.00
2018-06-08T16:01:29.785Z,28.00
2018-06-08T16:04:00.615Z,27.90
2018-06-08T16:09:01.399Z,27.50
2018-06-08T16:11:32.094Z,27.40
2018-06-08T16:14:02.906Z,27.30
2018-06-08T16:16:33.642Z,27.30
2018-06-08T16:19:04.383Z,27.40
2018-06-08T16:21:36.109Z,27.50
2018-06-08T16:24:06.838Z,27.50
2018-06-08T16:29:07.850Z,27.40
2018-06-08T16:31:39.072Z,27.30
2018-06-08T16:34:09.798Z,27.20
2018-06-08T16:36:40.509Z,27.20
2018-06-08T16:39:11.174Z,27.10
2018-06-08T16:41:41.961Z,27.00
2018-06-08T16:46:43.345Z,27.00
2018-06-08T16:49:14.067Z,27.00
2018-06-08T16:51:44.843Z,26.90
2018-06-08T16:54:15.562Z,26.80
2018-06-08T16:59:16.227Z,26.70
2018-06-08T17:01:47.006Z,26.60
2018-06-08T17:04:17.682Z,26.50
2018-06-08T17:06:48.531Z,26.50
2018-06-08T17:09:19.365Z,26.50
2018-06-08T17:14:20.446Z,26.40
2018-06-08T17:16:51.202Z,26.30
2018-06-08T17:19:21.871Z,26.30
2018-06-08T17:21:52.566Z,26.30
2018-06-08T17:24:23.490Z,26.20
2018-06-08T17:29:24.090Z,26.20
2018-06-08T17:31:54.813Z,26.10
2018-06-08T17:34:25.490Z,25.90
2018-06-08T17:39:26.706Z,25.70
2018-06-08T17:41:57.528Z,25.50
2018-06-08T17:44:28.285Z,25.40
2018-06-08T17:46:59.098Z,25.20
2018-06-08T17:51:59.971Z,25.10
2018-06-08T17:54:31.786Z,25.00
2018-06-08T17:57:02.668Z,24.80
2018-06-08T17:59:33.563Z,24.80
2018-06-08T18:02:04.794Z,24.60
2018-06-08T18:04:35.632Z,24.40
2018-06-08T18:07:06.743Z,24.30
2018-06-08T18:12:08.319Z,24.00
2018-06-08T18:14:39.154Z,23.90
2018-06-08T18:19:39.906Z,23.80
2018-06-08T18:22:10.766Z,23.70
2018-06-08T18:24:41.658Z,23.70
2018-06-08T18:27:12.644Z,23.60
2018-06-08T18:29:43.569Z,23.50
2018-06-08T18:34:44.433Z,23.20
2018-06-08T18:37:15.257Z,23.00
2018-06-08T18:39:46.209Z,22.80
2018-06-08T18:42:16.990Z,22.60
2018-06-08T18:44:47.786Z,22.60
2018-06-08T18:47:18.605Z,22.60
2018-06-08T18:49:49.460Z,22.40
2018-06-08T18:52:20.213Z,22.30
2018-06-08T18:57:21.166Z,22.10
2018-06-08T19:02:22.431Z,21.80
2018-06-08T19:04:53.330Z,21.70
2018-06-08T19:07:24.131Z,21.50
2018-06-08T19:09:54.976Z,21.40
2018-06-08T19:14:56.275Z,21.40
2018-06-08T19:17:27.124Z,21.20
2018-06-08T19:19:58.020Z,21.00
2018-06-08T19:24:58.902Z,20.80
2018-06-08T19:27:29.869Z,20.70
2018-06-08T19:30:00.714Z,20.60
2018-06-08T19:32:31.545Z,20.60
2018-06-08T19:35:02.311Z,20.40
2018-06-08T19:37:33.201Z,20.40
2018-06-08T19:40:04.133Z,20.30
2018-06-08T19:42:35.007Z,20.40
2018-06-08T19:45:06.191Z,20.20
2018-06-08T19:47:37.449Z,20.00
2018-06-08T19:52:38.384Z,19.70
2018-06-08T19:55:09.212Z,19.60
2018-06-08T19:57:40.171Z,19.40
2018-06-08T20:00:11.007Z,19.30
2018-06-08T20:02:41.905Z,19.20
2018-06-08T20:05:12.902Z,19.10
2018-06-08T20:07:43.771Z,19.00
2018-06-08T20:10:14.516Z,18.90
2018-06-08T20:12:46.003Z,18.80
2018-06-08T20:15:18.730Z,18.70
2018-06-08T20:17:49.803Z,18.60
2018-06-08T20:20:20.669Z,18.50
2018-06-08T20:22:51.385Z,18.40
2018-06-08T20:25:22.253Z,18.30
2018-06-08T20:27:53.123Z,18.20
2018-06-08T20:30:23.973Z,18.10
2018-06-08T20:32:54.790Z,18.00
2018-06-08T20:35:25.522Z,17.90
2018-06-08T20:37:56.367Z,17.80
2018-06-08T20:40:27.137Z,17.80
2018-06-08T20:42:58.411Z,17.70
2018-06-08T20:45:29.211Z,17.70
2018-06-08T20:50:30.422Z,17.70
2018-06-08T20:53:01.211Z,17.60
2018-06-08T20:55:32.151Z,17.50
2018-06-08T21:03:03.426Z,17.30
2018-06-08T21:05:34.568Z,17.30
2018-06-08T21:08:05.367Z,17.30
2018-06-08T21:10:36.108Z,17.30
2018-06-08T21:13:06.881Z,17.20
2018-06-08T21:15:38.557Z,17.10
2018-06-08T21:18:10.625Z,17.20
2018-06-08T21:23:12.057Z,17.10
2018-06-08T21:25:43.019Z,17.00
2018-06-08T21:28:13.901Z,17.00
2018-06-08T21:30:44.787Z,16.90
2018-06-08T21:33:15.573Z,16.90
2018-06-08T21:35:46.338Z,16.80
2018-06-08T21:38:17.117Z,16.70
2018-06-08T21:40:47.986Z,16.60
2018-06-08T21:43:18.736Z,16.50
2018-06-08T21:45:49.799Z,16.50
2018-06-08T21:48:20.634Z,16.40
2018-06-08T21:50:51.399Z,16.30
2018-06-08T21:53:22.110Z,16.30
2018-06-08T21:55:52.931Z,16.20
2018-06-08T21:58:23.656Z,16.20
2018-06-08T22:00:54.369Z,16.10
2018-06-08T22:03:25.134Z,16.10
2018-06-08T22:05:55.890Z,16.00
2018-06-08T22:08:26.714Z,16.00
2018-06-08T22:10:57.489Z,16.00
2018-06-08T22:13:28.240Z,16.00
2018-06-08T22:15:59.346Z,15.90
2018-06-08T22:21:01.262Z,15.80
2018-06-08T22:23:32.466Z,15.80
2018-06-08T22:26:03.294Z,15.80
2018-06-08T22:28:33.987Z,15.80
2018-06-08T22:31:05.077Z,15.70
2018-06-08T22:36:05.761Z,15.70
2018-06-08T22:38:36.429Z,15.70
2018-06-08T22:41:07.161Z,15.60
2018-06-08T22:43:37.809Z,15.60
2018-06-08T22:46:08.486Z,15.50
2018-06-08T22:48:39.149Z,15.60
2018-06-08T22:51:09.853Z,15.50
2018-06-08T22:53:40.552Z,15.50
2018-06-08T22:56:11.261Z,15.40
2018-06-08T22:58:41.902Z,15.40
2018-06-08T23:01:12.642Z,15.40
2018-06-08T23:03:43.313Z,15.30
2018-06-08T23:06:14.392Z,15.30
2018-06-08T23:08:45.065Z,15.20
2018-06-08T23:11:16.194Z,15.20
2018-06-08T23:13:46.883Z,15.10
2018-06-08T23:16:17.863Z,15.10
2018-06-08T23:18:48.521Z,15.00
2018-06-08T23:21:19.164Z,15.00
2018-06-08T23:23:49.837Z,15.00
2018-06-08T23:26:20.566Z,15.00
2018-06-08T23:28:51.281Z,14.90
2018-06-08T23:31:22.334Z,15.00
2018-06-08T23:33:53.294Z,14.90
2018-06-08T23:36:23.950Z,14.90
2018-06-08T23:38:54.630Z,14.90
2018-06-08T23:41:25.581Z,14.90
2018-06-08T23:43:56.523Z,14.80
2018-06-08T23:46:27.161Z,14.80
2018-06-08T23:48:57.843Z,14.70
2018-06-08T23:51:28.490Z,14.70
2018-06-08T23:53:59.198Z,14.70
2018-06-08T23:56:29.955Z,14.70
2018-06-08T23:59:00.669Z,14.70
